sensor_id;sensor_type;location;lat;lon;timestamp;P1;durP1;ratioP1;P2;durP2;ratioP2
5549;SDS011;2798;42.716;23.256;2022-07-23T00:00:13;8.90;;;6.50;;
5549;SDS011;2798;42.716;23.256;2022-07-23T00:02:39;10.60;;;5.90;;
5549;SDS011;2798;42.716;23.256;2022-07-23T00:05:04;11.30;;;5.97;;
5549;SDS011;2798;42.716;23.256;2022-07-23T00:07:30;7.60;;;5.43;;
5549;SDS011;2798;42.716;23.256;2022-07-23T00:09:55;10.43;;;5.93;;
5549;SDS011;2798;42.716;23.256;2022-07-23T00:12:21;8.40;;;6.17;;
5549;SDS011;2798;42.716;23.256;2022-07-23T00:14:46;15.27;;;6.17;;
5549;SDS011;2798;42.716;23.256;2022-07-23T00:17:12;18.50;;;6.67;;
5549;SDS011;2798;42.716;23.256;2022-07-23T00:19:37;9.87;;;5.73;;
5549;SDS011;2798;42.716;23.256;2022-07-23T00:22:03;13.90;;;7.20;;
5549;SDS011;2798;42.716;23.256;2022-07-23T00:24:28;13.10;;;6.80;;
5549;SDS011;2798;42.716;23.256;2022-07-23T00:26:54;13.20;;;5.87;;
5549;SDS011;2798;42.716;23.256;2022-07-23T00:29:19;9.30;;;5.80;;
5549;SDS011;2798;42.716;23.256;2022-07-23T00:31:44;8.20;;;5.40;;
5549;SDS011;2798;42.716;23.256;2022-07-23T00:34:10;16.27;;;5.73;;
5549;SDS011;2798;42.716;23.256;2022-07-23T00:36:35;10.60;;;5.80;;
5549;SDS011;2798;42.716;23.256;2022-07-23T00:39:01;8.33;;;5.17;;
5549;SDS011;2798;42.716;23.256;2022-07-23T00:41:26;9.27;;;5.13;;
5549;SDS011;2798;42.716;23.256;2022-07-23T00:43:52;10.37;;;5.83;;
5549;SDS011;2798;42.716;23.256;2022-07-23T00:46:20;8.50;;;5.13;;
5549;SDS011;2798;42.716;23.256;2022-07-23T00:48:47;13.23;;;5.93;;
5549;SDS011;2798;42.716;23.256;2022-07-23T00:51:12;8.73;;;5.43;;
5549;SDS011;2798;42.716;23.256;2022-07-23T00:53:39;11.67;;;4.93;;
5549;SDS011;2798;42.716;23.256;2022-07-23T00:56:05;7.97;;;6.00;;
5549;SDS011;2798;42.716;23.256;2022-07-23T00:58:31;5.80;;;5.10;;
5549;SDS011;2798;42.716;23.256;2022-07-23T01:00:58;6.50;;;5.60;;
5549;SDS011;2798;42.716;23.256;2022-07-23T01:03:23;9.53;;;6.63;;
5549;SDS011;2798;42.716;23.256;2022-07-23T01:05:48;7.30;;;5.23;;
5549;SDS011;2798;42.716;23.256;2022-07-23T01:08:14;8.70;;;5.07;;
5549;SDS011;2798;42.716;23.256;2022-07-23T01:10:39;8.00;;;6.20;;
5549;SDS011;2798;42.716;23.256;2022-07-23T01:13:08;8.57;;;5.20;;
5549;SDS011;2798;42.716;23.256;2022-07-23T01:15:35;10.37;;;5.63;;
5549;SDS011;2798;42.716;23.256;2022-07-23T01:18:03;5.60;;;5.00;;
5549;SDS011;2798;42.716;23.256;2022-07-23T01:20:30;8.67;;;6.40;;
5549;SDS011;2798;42.716;23.256;2022-07-23T01:22:55;10.60;;;5.53;;
5549;SDS011;2798;42.716;23.256;2022-07-23T01:25:21;12.93;;;6.00;;
5549;SDS011;2798;42.716;23.256;2022-07-23T01:27:47;11.63;;;6.50;;
5549;SDS011;2798;42.716;23.256;2022-07-23T01:30:13;7.53;;;5.03;;
5549;SDS011;2798;42.716;23.256;2022-07-23T01:32:38;11.03;;;5.63;;
5549;SDS011;2798;42.716;23.256;2022-07-23T01:35:04;8.00;;;6.17;;
5549;SDS011;2798;42.716;23.256;2022-07-23T01:37:30;10.87;;;5.57;;
5549;SDS011;2798;42.716;23.256;2022-07-23T01:39:56;12.17;;;6.27;;
5549;SDS011;2798;42.716;23.256;2022-07-23T01:42:21;8.37;;;6.10;;
5549;SDS011;2798;42.716;23.256;2022-07-23T01:44:47;9.60;;;5.87;;
5549;SDS011;2798;42.716;23.256;2022-07-23T01:47:12;10.50;;;6.43;;
5549;SDS011;2798;42.716;23.256;2022-07-23T01:49:37;9.07;;;6.13;;
5549;SDS011;2798;42.716;23.256;2022-07-23T01:52:03;7.93;;;5.57;;
5549;SDS011;2798;42.716;23.256;2022-07-23T01:54:32;12.27;;;7.00;;
5549;SDS011;2798;42.716;23.256;2022-07-23T01:56:59;11.47;;;5.83;;
5549;SDS011;2798;42.716;23.256;2022-07-23T01:59:25;10.00;;;5.90;;
5549;SDS011;2798;42.716;23.256;2022-07-23T02:01:51;8.33;;;5.93;;
5549;SDS011;2798;42.716;23.256;2022-07-23T02:04:18;8.47;;;5.57;;
5549;SDS011;2798;42.716;23.256;2022-07-23T02:06:44;6.57;;;5.63;;
5549;SDS011;2798;42.716;23.256;2022-07-23T02:09:10;6.90;;;5.53;;
5549;SDS011;2798;42.716;23.256;2022-07-23T02:11:35;10.60;;;5.43;;
5549;SDS011;2798;42.716;23.256;2022-07-23T02:14:01;9.50;;;5.50;;
5549;SDS011;2798;42.716;23.256;2022-07-23T02:16:27;16.30;;;5.57;;
5549;SDS011;2798;42.716;23.256;2022-07-23T02:18:52;13.10;;;5.83;;
5549;SDS011;2798;42.716;23.256;2022-07-23T02:21:18;13.13;;;6.07;;
5549;SDS011;2798;42.716;23.256;2022-07-23T02:23:43;7.90;;;5.50;;
5549;SDS011;2798;42.716;23.256;2022-07-23T02:26:09;8.50;;;5.87;;
5549;SDS011;2798;42.716;23.256;2022-07-23T02:28:34;8.60;;;5.73;;
5549;SDS011;2798;42.716;23.256;2022-07-23T02:30:59;10.40;;;6.50;;
5549;SDS011;2798;42.716;23.256;2022-07-23T02:33:25;10.10;;;5.87;;
5549;SDS011;2798;42.716;23.256;2022-07-23T02:35:50;8.57;;;5.97;;
5549;SDS011;2798;42.716;23.256;2022-07-23T02:38:16;11.13;;;5.97;;
5549;SDS011;2798;42.716;23.256;2022-07-23T02:40:41;8.97;;;5.40;;
5549;SDS011;2798;42.716;23.256;2022-07-23T02:43:06;8.10;;;5.73;;
5549;SDS011;2798;42.716;23.256;2022-07-23T02:45:32;9.93;;;5.60;;
5549;SDS011;2798;42.716;23.256;2022-07-23T02:47:57;8.70;;;6.33;;
5549;SDS011;2798;42.716;23.256;2022-07-23T02:50:23;8.90;;;6.00;;
5549;SDS011;2798;42.716;23.256;2022-07-23T02:52:49;10.80;;;6.40;;
5549;SDS011;2798;42.716;23.256;2022-07-23T02:55:15;13.13;;;6.50;;
5549;SDS011;2798;42.716;23.256;2022-07-23T02:57:41;12.00;;;5.90;;
5549;SDS011;2798;42.716;23.256;2022-07-23T03:00:06;12.60;;;5.90;;
5549;SDS011;2798;42.716;23.256;2022-07-23T03:02:32;10.50;;;6.60;;
5549;SDS011;2798;42.716;23.256;2022-07-23T03:04:58;11.10;;;6.70;;
5549;SDS011;2798;42.716;23.256;2022-07-23T03:07:24;13.00;;;6.17;;
5549;SDS011;2798;42.716;23.256;2022-07-23T03:09:49;14.20;;;7.20;;
5549;SDS011;2798;42.716;23.256;2022-07-23T03:12:14;11.70;;;6.50;;
5549;SDS011;2798;42.716;23.256;2022-07-23T03:14:40;11.00;;;6.70;;
5549;SDS011;2798;42.716;23.256;2022-07-23T03:17:06;8.90;;;6.33;;
5549;SDS011;2798;42.716;23.256;2022-07-23T03:19:32;11.53;;;5.70;;
5549;SDS011;2798;42.716;23.256;2022-07-23T03:21:57;11.17;;;6.60;;
5549;SDS011;2798;42.716;23.256;2022-07-23T03:24:23;9.20;;;6.57;;
5549;SDS011;2798;42.716;23.256;2022-07-23T03:27:08;10.80;;;8.73;;
5549;SDS011;2798;42.716;23.256;2022-07-23T03:29:34;13.83;;;8.13;;
5549;SDS011;2798;42.716;23.256;2022-07-23T03:31:59;11.53;;;7.93;;
5549;SDS011;2798;42.716;23.256;2022-07-23T03:34:24;18.00;;;8.63;;
5549;SDS011;2798;42.716;23.256;2022-07-23T03:36:50;11.60;;;7.07;;
5549;SDS011;2798;42.716;23.256;2022-07-23T03:39:15;13.93;;;7.37;;
5549;SDS011;2798;42.716;23.256;2022-07-23T03:41:41;17.07;;;8.03;;
5549;SDS011;2798;42.716;23.256;2022-07-23T03:44:06;17.37;;;7.27;;
5549;SDS011;2798;42.716;23.256;2022-07-23T03:46:32;12.63;;;6.53;;
5549;SDS011;2798;42.716;23.256;2022-07-23T03:48:57;14.03;;;7.70;;
5549;SDS011;2798;42.716;23.256;2022-07-23T03:51:22;10.00;;;7.03;;
5549;SDS011;2798;42.716;23.256;2022-07-23T03:53:48;13.33;;;6.73;;
5549;SDS011;2798;42.716;23.256;2022-07-23T03:56:14;10.30;;;6.37;;
5549;SDS011;2798;42.716;23.256;2022-07-23T03:58:39;9.37;;;5.87;;
5549;SDS011;2798;42.716;23.256;2022-07-23T04:01:05;7.23;;;5.90;;
5549;SDS011;2798;42.716;23.256;2022-07-23T04:03:30;10.23;;;5.40;;
5549;SDS011;2798;42.716;23.256;2022-07-23T04:05:56;15.17;;;5.73;;
5549;SDS011;2798;42.716;23.256;2022-07-23T04:08:21;8.70;;;6.50;;
5549;SDS011;2798;42.716;23.256;2022-07-23T04:10:47;11.93;;;6.43;;
5549;SDS011;2798;42.716;23.256;2022-07-23T04:13:12;14.23;;;6.30;;
5549;SDS011;2798;42.716;23.256;2022-07-23T04:15:38;15.73;;;8.00;;
5549;SDS011;2798;42.716;23.256;2022-07-23T04:18:03;14.30;;;7.57;;
5549;SDS011;2798;42.716;23.256;2022-07-23T04:20:29;9.97;;;6.67;;
5549;SDS011;2798;42.716;23.256;2022-07-23T04:22:54;11.43;;;7.10;;
5549;SDS011;2798;42.716;23.256;2022-07-23T04:25:20;9.07;;;7.50;;
5549;SDS011;2798;42.716;23.256;2022-07-23T04:27:45;9.47;;;7.43;;
5549;SDS011;2798;42.716;23.256;2022-07-23T04:30:10;11.70;;;7.27;;
5549;SDS011;2798;42.716;23.256;2022-07-23T04:32:36;10.33;;;6.37;;
5549;SDS011;2798;42.716;23.256;2022-07-23T04:35:01;15.57;;;7.27;;
5549;SDS011;2798;42.716;23.256;2022-07-23T04:37:27;9.77;;;6.80;;
5549;SDS011;2798;42.716;23.256;2022-07-23T04:39:53;8.50;;;6.60;;
5549;SDS011;2798;42.716;23.256;2022-07-23T04:42:18;14.53;;;6.53;;
5549;SDS011;2798;42.716;23.256;2022-07-23T04:44:43;11.03;;;7.30;;
5549;SDS011;2798;42.716;23.256;2022-07-23T04:47:09;12.93;;;7.57;;
5549;SDS011;2798;42.716;23.256;2022-07-23T04:49:35;15.20;;;7.20;;
5549;SDS011;2798;42.716;23.256;2022-07-23T04:52:01;9.93;;;7.80;;
5549;SDS011;2798;42.716;23.256;2022-07-23T04:54:27;12.70;;;7.40;;
5549;SDS011;2798;42.716;23.256;2022-07-23T04:56:52;12.50;;;7.10;;
5549;SDS011;2798;42.716;23.256;2022-07-23T04:59:18;12.83;;;7.67;;
5549;SDS011;2798;42.716;23.256;2022-07-23T05:01:43;12.80;;;9.10;;
5549;SDS011;2798;42.716;23.256;2022-07-23T05:04:08;26.93;;;17.70;;
5549;SDS011;2798;42.716;23.256;2022-07-23T05:06:34;10.03;;;8.73;;
5549;SDS011;2798;42.716;23.256;2022-07-23T05:08:59;18.53;;;7.10;;
5549;SDS011;2798;42.716;23.256;2022-07-23T05:11:25;13.03;;;7.70;;
5549;SDS011;2798;42.716;23.256;2022-07-23T05:13:50;19.57;;;7.57;;
5549;SDS011;2798;42.716;23.256;2022-07-23T05:16:16;14.20;;;7.60;;
5549;SDS011;2798;42.716;23.256;2022-07-23T05:18:42;11.33;;;8.53;;
5549;SDS011;2798;42.716;23.256;2022-07-23T05:21:07;19.03;;;7.60;;
5549;SDS011;2798;42.716;23.256;2022-07-23T05:23:33;13.43;;;7.40;;
5549;SDS011;2798;42.716;23.256;2022-07-23T05:25:59;13.90;;;7.13;;
5549;SDS011;2798;42.716;23.256;2022-07-23T05:28:24;24.03;;;12.20;;
5549;SDS011;2798;42.716;23.256;2022-07-23T05:30:50;10.93;;;8.77;;
5549;SDS011;2798;42.716;23.256;2022-07-23T05:33:17;13.37;;;7.87;;
5549;SDS011;2798;42.716;23.256;2022-07-23T05:35:44;15.43;;;7.50;;
5549;SDS011;2798;42.716;23.256;2022-07-23T05:38:09;11.30;;;7.33;;
5549;SDS011;2798;42.716;23.256;2022-07-23T05:40:35;10.13;;;7.00;;
5549;SDS011;2798;42.716;23.256;2022-07-23T05:43:00;12.80;;;7.90;;
5549;SDS011;2798;42.716;23.256;2022-07-23T05:45:26;17.03;;;7.37;;
5549;SDS011;2798;42.716;23.256;2022-07-23T05:47:51;13.50;;;7.67;;
5549;SDS011;2798;42.716;23.256;2022-07-23T05:50:17;13.47;;;7.10;;
5549;SDS011;2798;42.716;23.256;2022-07-23T05:52:43;8.77;;;7.30;;
5549;SDS011;2798;42.716;23.256;2022-07-23T05:55:09;17.93;;;8.70;;
5549;SDS011;2798;42.716;23.256;2022-07-23T05:57:37;11.07;;;7.83;;
5549;SDS011;2798;42.716;23.256;2022-07-23T06:00:04;10.53;;;8.50;;
5549;SDS011;2798;42.716;23.256;2022-07-23T06:02:30;15.50;;;8.10;;
5549;SDS011;2798;42.716;23.256;2022-07-23T06:04:56;14.77;;;8.40;;
5549;SDS011;2798;42.716;23.256;2022-07-23T06:07:21;14.27;;;7.30;;
5549;SDS011;2798;42.716;23.256;2022-07-23T06:09:47;10.17;;;6.60;;
5549;SDS011;2798;42.716;23.256;2022-07-23T06:12:14;11.87;;;7.03;;
5549;SDS011;2798;42.716;23.256;2022-07-23T06:14:40;11.27;;;7.17;;
5549;SDS011;2798;42.716;23.256;2022-07-23T06:17:05;17.53;;;7.30;;
5549;SDS011;2798;42.716;23.256;2022-07-23T06:19:31;16.70;;;7.50;;
5549;SDS011;2798;42.716;23.256;2022-07-23T06:21:56;16.27;;;8.07;;
5549;SDS011;2798;42.716;23.256;2022-07-23T06:24:22;17.03;;;8.67;;
5549;SDS011;2798;42.716;23.256;2022-07-23T06:26:47;14.00;;;7.90;;
5549;SDS011;2798;42.716;23.256;2022-07-23T06:29:12;14.00;;;7.43;;
5549;SDS011;2798;42.716;23.256;2022-07-23T06:31:38;19.27;;;7.73;;
5549;SDS011;2798;42.716;23.256;2022-07-23T06:34:03;11.00;;;8.50;;
5549;SDS011;2798;42.716;23.256;2022-07-23T06:36:29;18.60;;;8.57;;
5549;SDS011;2798;42.716;23.256;2022-07-23T06:38:55;23.20;;;8.37;;
5549;SDS011;2798;42.716;23.256;2022-07-23T06:41:20;16.10;;;8.10;;
5549;SDS011;2798;42.716;23.256;2022-07-23T06:43:47;12.20;;;7.57;;
5549;SDS011;2798;42.716;23.256;2022-07-23T06:46:13;14.10;;;7.77;;
5549;SDS011;2798;42.716;23.256;2022-07-23T06:48:38;15.50;;;10.90;;
5549;SDS011;2798;42.716;23.256;2022-07-23T06:51:04;14.57;;;9.07;;
5549;SDS011;2798;42.716;23.256;2022-07-23T06:53:29;18.37;;;8.00;;
5549;SDS011;2798;42.716;23.256;2022-07-23T06:55:55;16.70;;;7.17;;
5549;SDS011;2798;42.716;23.256;2022-07-23T06:58:20;21.10;;;8.00;;
5549;SDS011;2798;42.716;23.256;2022-07-23T07:00:46;14.50;;;7.70;;
5549;SDS011;2798;42.716;23.256;2022-07-23T07:03:11;14.00;;;8.30;;
5549;SDS011;2798;42.716;23.256;2022-07-23T07:05:37;11.43;;;7.60;;
5549;SDS011;2798;42.716;23.256;2022-07-23T07:08:02;11.70;;;7.90;;
5549;SDS011;2798;42.716;23.256;2022-07-23T07:10:28;12.93;;;8.13;;
5549;SDS011;2798;42.716;23.256;2022-07-23T07:12:53;14.33;;;8.23;;
5549;SDS011;2798;42.716;23.256;2022-07-23T07:15:18;12.50;;;7.63;;
5549;SDS011;2798;42.716;23.256;2022-07-23T07:17:44;15.13;;;8.20;;
5549;SDS011;2798;42.716;23.256;2022-07-23T07:20:10;14.17;;;7.80;;
5549;SDS011;2798;42.716;23.256;2022-07-23T07:22:36;16.43;;;10.70;;
5549;SDS011;2798;42.716;23.256;2022-07-23T07:25:01;12.83;;;8.10;;
5549;SDS011;2798;42.716;23.256;2022-07-23T07:27:27;21.57;;;8.60;;
5549;SDS011;2798;42.716;23.256;2022-07-23T07:29:52;16.60;;;7.83;;
5549;SDS011;2798;42.716;23.256;2022-07-23T07:32:18;13.70;;;8.03;;
5549;SDS011;2798;42.716;23.256;2022-07-23T07:34:43;12.07;;;8.30;;
5549;SDS011;2798;42.716;23.256;2022-07-23T07:37:09;21.20;;;8.17;;
5549;SDS011;2798;42.716;23.256;2022-07-23T07:39:34;11.70;;;7.00;;
5549;SDS011;2798;42.716;23.256;2022-07-23T07:41:59;40.80;;;8.83;;
5549;SDS011;2798;42.716;23.256;2022-07-23T07:44:25;23.53;;;7.93;;
5549;SDS011;2798;42.716;23.256;2022-07-23T07:46:50;13.40;;;7.13;;
5549;SDS011;2798;42.716;23.256;2022-07-23T07:49:16;14.77;;;8.50;;
5549;SDS011;2798;42.716;23.256;2022-07-23T07:51:44;12.40;;;7.73;;
5549;SDS011;2798;42.716;23.256;2022-07-23T07:54:10;21.30;;;7.90;;
5549;SDS011;2798;42.716;23.256;2022-07-23T07:56:35;19.20;;;7.57;;
5549;SDS011;2798;42.716;23.256;2022-07-23T07:59:00;15.03;;;7.70;;
5549;SDS011;2798;42.716;23.256;2022-07-23T08:01:26;15.90;;;7.30;;
5549;SDS011;2798;42.716;23.256;2022-07-23T08:03:51;25.13;;;8.13;;
5549;SDS011;2798;42.716;23.256;2022-07-23T08:06:17;18.10;;;8.10;;
5549;SDS011;2798;42.716;23.256;2022-07-23T08:08:42;13.60;;;8.97;;
5549;SDS011;2798;42.716;23.256;2022-07-23T08:11:08;14.63;;;7.80;;
5549;SDS011;2798;42.716;23.256;2022-07-23T08:13:33;18.97;;;8.37;;
5549;SDS011;2798;42.716;23.256;2022-07-23T08:15:58;12.60;;;7.53;;
5549;SDS011;2798;42.716;23.256;2022-07-23T08:18:24;13.53;;;7.33;;
5549;SDS011;2798;42.716;23.256;2022-07-23T08:20:49;11.03;;;7.77;;
5549;SDS011;2798;42.716;23.256;2022-07-23T08:23:15;24.17;;;9.10;;
5549;SDS011;2798;42.716;23.256;2022-07-23T08:25:44;12.60;;;7.03;;
5549;SDS011;2798;42.716;23.256;2022-07-23T08:28:11;15.17;;;7.93;;
5549;SDS011;2798;42.716;23.256;2022-07-23T08:30:38;18.70;;;8.03;;
5549;SDS011;2798;42.716;23.256;2022-07-23T08:33:07;14.23;;;7.70;;
5549;SDS011;2798;42.716;23.256;2022-07-23T08:35:42;21.10;;;8.33;;
5549;SDS011;2798;42.716;23.256;2022-07-23T08:38:14;13.53;;;8.20;;
5549;SDS011;2798;42.716;23.256;2022-07-23T08:40:45;11.17;;;7.47;;
5549;SDS011;2798;42.716;23.256;2022-07-23T08:43:13;20.10;;;7.60;;
5549;SDS011;2798;42.716;23.256;2022-07-23T08:45:41;19.07;;;8.10;;
5549;SDS011;2798;42.716;23.256;2022-07-23T08:48:11;14.33;;;6.50;;
5549;SDS011;2798;42.716;23.256;2022-07-23T08:50:40;18.47;;;7.87;;
5549;SDS011;2798;42.716;23.256;2022-07-23T08:53:11;14.30;;;7.50;;
5549;SDS011;2798;42.716;23.256;2022-07-23T08:55:37;13.43;;;6.97;;
5549;SDS011;2798;42.716;23.256;2022-07-23T08:58:03;19.10;;;8.07;;
5549;SDS011;2798;42.716;23.256;2022-07-23T09:00:29;15.63;;;7.80;;
5549;SDS011;2798;42.716;23.256;2022-07-23T09:02:55;16.90;;;8.50;;
5549;SDS011;2798;42.716;23.256;2022-07-23T09:05:20;15.77;;;7.47;;
5549;SDS011;2798;42.716;23.256;2022-07-23T09:18:33;14.27;;;7.27;;
5549;SDS011;2798;42.716;23.256;2022-07-23T09:24:01;10.90;;;7.70;;
5549;SDS011;2798;42.716;23.256;2022-07-23T09:29:21;11.80;;;7.07;;
5549;SDS011;2798;42.716;23.256;2022-07-23T09:34:24;12.80;;;7.40;;
5549;SDS011;2798;42.716;23.256;2022-07-23T09:37:10;9.33;;;6.20;;
5549;SDS011;2798;42.716;23.256;2022-07-23T09:39:41;13.10;;;7.03;;
5549;SDS011;2798;42.716;23.256;2022-07-23T09:44:43;13.50;;;6.93;;
5549;SDS011;2798;42.716;23.256;2022-07-23T09:47:10;10.10;;;5.87;;
5549;SDS011;2798;42.716;23.256;2022-07-23T09:49:35;19.20;;;6.17;;
5549;SDS011;2798;42.716;23.256;2022-07-23T09:52:01;12.50;;;6.37;;
5549;SDS011;2798;42.716;23.256;2022-07-23T09:54:34;14.10;;;6.47;;
5549;SDS011;2798;42.716;23.256;2022-07-23T09:57:03;13.37;;;6.40;;
5549;SDS011;2798;42.716;23.256;2022-07-23T09:59:36;11.80;;;5.47;;
5549;SDS011;2798;42.716;23.256;2022-07-23T10:02:03;15.70;;;6.40;;
5549;SDS011;2798;42.716;23.256;2022-07-23T10:04:30;9.37;;;6.53;;
5549;SDS011;2798;42.716;23.256;2022-07-23T10:07:01;12.37;;;6.53;;
5549;SDS011;2798;42.716;23.256;2022-07-23T10:09:38;18.53;;;6.00;;
5549;SDS011;2798;42.716;23.256;2022-07-23T10:12:09;10.23;;;5.73;;
5549;SDS011;2798;42.716;23.256;2022-07-23T10:14:57;11.80;;;6.10;;
5549;SDS011;2798;42.716;23.256;2022-07-23T10:17:23;9.30;;;5.40;;
5549;SDS011;2798;42.716;23.256;2022-07-23T10:19:48;11.50;;;5.50;;
5549;SDS011;2798;42.716;23.256;2022-07-23T10:22:15;7.67;;;4.80;;
5549;SDS011;2798;42.716;23.256;2022-07-23T10:36:29;9.20;;;5.53;;
5549;SDS011;2798;42.716;23.256;2022-07-23T10:38:43;8.77;;;5.27;;
5549;SDS011;2798;42.716;23.256;2022-07-23T10:41:13;13.40;;;6.03;;
5549;SDS011;2798;42.716;23.256;2022-07-23T10:43:38;10.70;;;6.33;;
5549;SDS011;2798;42.716;23.256;2022-07-23T10:49:40;7.50;;;4.63;;
5549;SDS011;2798;42.716;23.256;2022-07-23T10:54:44;14.20;;;5.67;;
5549;SDS011;2798;42.716;23.256;2022-07-23T10:57:11;7.53;;;5.20;;
5549;SDS011;2798;42.716;23.256;2022-07-23T11:02:31;8.50;;;4.90;;
5549;SDS011;2798;42.716;23.256;2022-07-23T11:05:00;9.47;;;4.70;;
5549;SDS011;2798;42.716;23.256;2022-07-23T11:07:29;10.90;;;4.80;;
5549;SDS011;2798;42.716;23.256;2022-07-23T11:09:55;17.40;;;5.83;;
5549;SDS011;2798;42.716;23.256;2022-07-23T11:17:24;7.03;;;4.80;;
5549;SDS011;2798;42.716;23.256;2022-07-23T11:22:54;15.10;;;5.17;;
5549;SDS011;2798;42.716;23.256;2022-07-23T11:27:46;9.23;;;5.20;;
5549;SDS011;2798;42.716;23.256;2022-07-23T11:32:54;13.93;;;4.50;;
5549;SDS011;2798;42.716;23.256;2022-07-23T11:35:39;9.83;;;4.73;;
5549;SDS011;2798;42.716;23.256;2022-07-23T11:38:16;12.93;;;4.70;;
5549;SDS011;2798;42.716;23.256;2022-07-23T11:40:44;16.60;;;5.10;;
5549;SDS011;2798;42.716;23.256;2022-07-23T11:43:12;9.37;;;4.90;;
5549;SDS011;2798;42.716;23.256;2022-07-23T11:45:45;16.13;;;4.73;;
5549;SDS011;2798;42.716;23.256;2022-07-23T11:48:16;10.33;;;4.93;;
5549;SDS011;2798;42.716;23.256;2022-07-23T11:50:43;25.27;;;5.23;;
5549;SDS011;2798;42.716;23.256;2022-07-23T11:53:09;16.13;;;4.67;;
5549;SDS011;2798;42.716;23.256;2022-07-23T11:55:34;11.00;;;4.40;;
5549;SDS011;2798;42.716;23.256;2022-07-23T11:58:00;12.83;;;4.53;;
5549;SDS011;2798;42.716;23.256;2022-07-23T12:00:26;13.40;;;4.77;;
5549;SDS011;2798;42.716;23.256;2022-07-23T12:02:58;12.03;;;4.77;;
5549;SDS011;2798;42.716;23.256;2022-07-23T12:05:27;14.50;;;4.87;;
5549;SDS011;2798;42.716;23.256;2022-07-23T12:07:56;15.17;;;5.30;;
5549;SDS011;2798;42.716;23.256;2022-07-23T12:10:26;17.63;;;5.10;;
5549;SDS011;2798;42.716;23.256;2022-07-23T12:15:32;15.37;;;5.23;;
5549;SDS011;2798;42.716;23.256;2022-07-23T12:18:09;15.60;;;5.33;;
5549;SDS011;2798;42.716;23.256;2022-07-23T12:20:41;10.40;;;4.50;;
5549;SDS011;2798;42.716;23.256;2022-07-23T12:23:08;19.20;;;4.67;;
5549;SDS011;2798;42.716;23.256;2022-07-23T12:25:36;13.87;;;4.90;;
5549;SDS011;2798;42.716;23.256;2022-07-23T12:30:37;17.92;;;5.07;;
5549;SDS011;2798;42.716;23.256;2022-07-23T12:33:13;13.90;;;5.28;;
5549;SDS011;2798;42.716;23.256;2022-07-23T12:35:45;13.98;;;4.90;;
5549;SDS011;2798;42.716;23.256;2022-07-23T12:38:12;10.25;;;4.10;;
5549;SDS011;2798;42.716;23.256;2022-07-23T12:40:43;13.75;;;5.40;;
5549;SDS011;2798;42.716;23.256;2022-07-23T12:43:10;10.30;;;4.18;;
5549;SDS011;2798;42.716;23.256;2022-07-23T12:45:47;13.57;;;4.63;;
5549;SDS011;2798;42.716;23.256;2022-07-23T12:48:22;18.80;;;4.88;;
5549;SDS011;2798;42.716;23.256;2022-07-23T12:50:50;13.65;;;4.80;;
5549;SDS011;2798;42.716;23.256;2022-07-23T12:53:23;19.30;;;4.53;;
5549;SDS011;2798;42.716;23.256;2022-07-23T12:55:57;14.40;;;4.43;;
5549;SDS011;2798;42.716;23.256;2022-07-23T12:58:24;14.32;;;5.93;;
5549;SDS011;2798;42.716;23.256;2022-07-23T13:05:58;16.83;;;4.63;;
5549;SDS011;2798;42.716;23.256;2022-07-23T13:08:25;8.50;;;4.22;;
5549;SDS011;2798;42.716;23.256;2022-07-23T13:10:52;17.73;;;5.15;;
5549;SDS011;2798;42.716;23.256;2022-07-23T13:13:22;9.73;;;4.18;;
5549;SDS011;2798;42.716;23.256;2022-07-23T13:15:49;10.88;;;4.18;;
5549;SDS011;2798;42.716;23.256;2022-07-23T13:18:16;11.43;;;4.40;;
5549;SDS011;2798;42.716;23.256;2022-07-23T13:20:43;11.45;;;3.95;;
5549;SDS011;2798;42.716;23.256;2022-07-23T13:23:10;9.88;;;3.88;;
5549;SDS011;2798;42.716;23.256;2022-07-23T13:25:35;8.93;;;3.58;;
5549;SDS011;2798;42.716;23.256;2022-07-23T13:28:01;9.20;;;3.63;;
5549;SDS011;2798;42.716;23.256;2022-07-23T13:30:26;10.02;;;3.67;;
5549;SDS011;2798;42.716;23.256;2022-07-23T13:32:52;11.13;;;3.88;;
5549;SDS011;2798;42.716;23.256;2022-07-23T13:35:17;11.55;;;4.00;;
5549;SDS011;2798;42.716;23.256;2022-07-23T13:37:43;15.50;;;4.55;;
5549;SDS011;2798;42.716;23.256;2022-07-23T13:40:08;16.00;;;4.88;;
5549;SDS011;2798;42.716;23.256;2022-07-23T13:42:34;9.38;;;3.88;;
5549;SDS011;2798;42.716;23.256;2022-07-23T13:45:00;11.77;;;4.28;;
5549;SDS011;2798;42.716;23.256;2022-07-23T13:47:26;11.93;;;4.10;;
5549;SDS011;2798;42.716;23.256;2022-07-23T13:49:51;9.75;;;4.15;;
5549;SDS011;2798;42.716;23.256;2022-07-23T13:52:17;8.80;;;3.92;;
5549;SDS011;2798;42.716;23.256;2022-07-23T13:54:42;9.25;;;4.38;;
5549;SDS011;2798;42.716;23.256;2022-07-23T13:57:07;11.93;;;4.25;;
5549;SDS011;2798;42.716;23.256;2022-07-23T13:59:34;15.63;;;4.38;;
5549;SDS011;2798;42.716;23.256;2022-07-23T14:02:01;15.93;;;4.03;;
5549;SDS011;2798;42.716;23.256;2022-07-23T14:04:28;17.90;;;5.10;;
5549;SDS011;2798;42.716;23.256;2022-07-23T14:06:53;10.13;;;5.20;;
5549;SDS011;2798;42.716;23.256;2022-07-23T14:09:19;11.20;;;3.88;;
5549;SDS011;2798;42.716;23.256;2022-07-23T14:11:44;11.13;;;3.78;;
5549;SDS011;2798;42.716;23.256;2022-07-23T14:14:10;8.15;;;3.80;;
5549;SDS011;2798;42.716;23.256;2022-07-23T14:16:35;14.25;;;4.50;;
5549;SDS011;2798;42.716;23.256;2022-07-23T14:19:01;18.52;;;4.45;;
5549;SDS011;2798;42.716;23.256;2022-07-23T14:21:27;10.30;;;4.30;;
5549;SDS011;2798;42.716;23.256;2022-07-23T14:23:52;11.48;;;3.88;;
5549;SDS011;2798;42.716;23.256;2022-07-23T14:26:18;6.60;;;3.80;;
5549;SDS011;2798;42.716;23.256;2022-07-23T14:28:44;9.80;;;3.53;;
5549;SDS011;2798;42.716;23.256;2022-07-23T14:31:09;8.10;;;3.58;;
5549;SDS011;2798;42.716;23.256;2022-07-23T14:33:34;10.80;;;3.85;;
5549;SDS011;2798;42.716;23.256;2022-07-23T14:36:00;18.42;;;4.40;;
5549;SDS011;2798;42.716;23.256;2022-07-23T14:38:25;9.80;;;3.65;;
5549;SDS011;2798;42.716;23.256;2022-07-23T14:40:52;11.30;;;3.75;;
5549;SDS011;2798;42.716;23.256;2022-07-23T14:43:17;10.48;;;4.55;;
5549;SDS011;2798;42.716;23.256;2022-07-23T14:45:42;11.38;;;3.80;;
5549;SDS011;2798;42.716;23.256;2022-07-23T14:48:08;16.17;;;10.20;;
5549;SDS011;2798;42.716;23.256;2022-07-23T14:50:33;10.18;;;5.65;;
5549;SDS011;2798;42.716;23.256;2022-07-23T14:52:59;16.92;;;4.65;;
5549;SDS011;2798;42.716;23.256;2022-07-23T14:55:24;7.03;;;4.00;;
5549;SDS011;2798;42.716;23.256;2022-07-23T14:57:50;9.85;;;3.70;;
5549;SDS011;2798;42.716;23.256;2022-07-23T15:00:16;5.40;;;3.47;;
5549;SDS011;2798;42.716;23.256;2022-07-23T15:02:41;7.13;;;3.50;;
5549;SDS011;2798;42.716;23.256;2022-07-23T15:05:07;10.38;;;4.07;;
5549;SDS011;2798;42.716;23.256;2022-07-23T15:07:32;8.20;;;3.75;;
5549;SDS011;2798;42.716;23.256;2022-07-23T15:09:58;10.75;;;3.90;;
5549;SDS011;2798;42.716;23.256;2022-07-23T15:12:23;9.55;;;3.88;;
5549;SDS011;2798;42.716;23.256;2022-07-23T15:14:49;6.55;;;3.40;;
5549;SDS011;2798;42.716;23.256;2022-07-23T15:17:14;13.40;;;4.40;;
5549;SDS011;2798;42.716;23.256;2022-07-23T15:19:40;10.82;;;3.67;;
5549;SDS011;2798;42.716;23.256;2022-07-23T15:22:06;9.23;;;3.80;;
5549;SDS011;2798;42.716;23.256;2022-07-23T15:24:31;8.82;;;3.42;;
5549;SDS011;2798;42.716;23.256;2022-07-23T15:26:57;10.70;;;4.18;;
5549;SDS011;2798;42.716;23.256;2022-07-23T15:29:23;11.73;;;3.70;;
5549;SDS011;2798;42.716;23.256;2022-07-23T15:31:49;8.98;;;3.53;;
5549;SDS011;2798;42.716;23.256;2022-07-23T15:34:14;13.40;;;4.88;;
5549;SDS011;2798;42.716;23.256;2022-07-23T15:36:40;8.55;;;4.13;;
5549;SDS011;2798;42.716;23.256;2022-07-23T15:39:06;8.95;;;3.97;;
5549;SDS011;2798;42.716;23.256;2022-07-23T15:41:31;9.48;;;3.95;;
5549;SDS011;2798;42.716;23.256;2022-07-23T15:43:57;9.93;;;4.25;;
5549;SDS011;2798;42.716;23.256;2022-07-23T15:46:23;11.27;;;3.22;;
5549;SDS011;2798;42.716;23.256;2022-07-23T15:48:49;10.32;;;3.60;;
5549;SDS011;2798;42.716;23.256;2022-07-23T15:51:15;12.20;;;4.35;;